Hostile Method-08 — HM-08 — position and weather

sailwx.info

Track history (hours):
 
Tides and Currents Weather Stations Pressure Air Temp Water Temp Dewpoint Dewpoint Depression Visibility Wind Speed Wind Dir Waves Ship Positions

Hostile Method-08

Last reported at 2017-Oct-19 01:18 UTC. Time now 2017-Oct-19 23:45 UTC.
Position N 34°09' W 119°13'.

Length 26 m; draft 1.6 m.

Type: Military. MMSI: 369970279.

Date/timePositionNaut miles runAvg speedWind from/ knotsBaromVisibWave heightAir tempDewpointWater temp
2017-Oct-19 01:18N 34°09' W 119°13'0 0.0
2017-Oct-19 01:00N 34°09' W 119°13'0 0.0
2017-Oct-19 00:28N 34°09' W 119°13'0 0.0
2017-Oct-19 00:00N 34°09' W 119°13'0 0.0
2017-Oct-18 23:30N 34°09' W 119°13'0 0.0
2017-Oct-18 22:59N 34°09' W 119°13'0 0.0
2017-Oct-18 22:30N 34°09' W 119°13'0 0.0
2017-Oct-18 22:00N 34°09' W 119°13'0 0.0
2017-Oct-18 21:30N 34°09' W 119°13'0 0.0
2017-Oct-18 20:59N 34°09' W 119°13'0 0.0
2017-Oct-18 20:30N 34°09' W 119°13'0 0.0
2017-Oct-18 19:57N 34°09' W 119°13'0 0.0
2017-Oct-18 19:30N 34°09' W 119°13'0 0.0
2017-Oct-18 18:59N 34°09' W 119°13'0 0.0
2017-Oct-18 18:30N 34°09' W 119°13'0 0.0
2017-Oct-18 18:00N 34°09' W 119°13'2 4.2
2017-Oct-18 17:29N 34°07' W 119°13'714.7
2017-Oct-18 17:00N 34°02' W 119°19'714.6
2017-Oct-18 16:30N 33°58' W 119°26'714.0
2017-Oct-18 16:00N 33°54' W 119°33'611.3
2017-Oct-18 15:30N 33°48' W 119°35'3 6.3
2017-Oct-18 14:59N 33°46' W 119°33'5 5.5
2017-Oct-18 14:00N 33°45' W 119°39'1 1.4
2017-Oct-18 13:30N 33°45' W 119°40'2 4.2
2017-Oct-18 13:00N 33°46' W 119°42'5 9.5
2017-Oct-18 12:30N 33°47' W 119°37'3 5.5
2017-Oct-18 12:00N 33°48' W 119°34'612.1
2017-Oct-18 11:31N 33°51' W 119°28'713.5
2017-Oct-18 11:00N 33°57' W 119°23'713.4
2017-Oct-18 10:30N 34°02' W 119°18'713.6
2017-Oct-18 10:00N 34°08' W 119°14'2 3.3
2017-Oct-18 09:29N 34°09' W 119°13'0 0.0
2017-Oct-17 20:34N 34°09' W 119°13'0 0.0
2017-Oct-17 20:29N 34°09' W 119°13'0 0.0
2017-Oct-17 19:59N 34°09' W 119°13'3 6.2
2017-Oct-17 19:29N 34°07' W 119°15'715.0
2017-Oct-17 19:00N 34°01' W 119°20'815.0
2017-Oct-17 18:30N 33°56' W 119°27'815.5
2017-Oct-17 18:00N 33°52' W 119°35'815.0
2017-Oct-17 17:30N 33°47' W 119°42'510.7
2017-Oct-17 17:00N 33°45' W 119°48'1 2.2
2017-Oct-17 16:30N 33°44' W 119°47'1 1.7
2017-Oct-17 16:00N 33°43' W 119°47'2 4.1
2017-Oct-17 15:30N 33°43' W 119°49'3 5.9
2017-Oct-17 15:00N 33°44' W 119°52'2 3.4
2017-Oct-17 14:30N 33°44' W 119°54'612.2
2017-Oct-17 14:00N 33°45' W 119°47'612.7
2017-Oct-17 13:30N 33°46' W 119°39'612.4
2017-Oct-17 13:00N 33°49' W 119°33'612.6
2017-Oct-17 12:30N 33°53' W 119°27'712.8
2017-Oct-17 11:58N 33°59' W 119°22'612.2
2017-Oct-17 11:30N 34°03' W 119°18'612.8
2017-Oct-17 11:00N 34°08' W 119°13'  
2017-Oct-13 14:08N 34°09' W 119°13'0 0.0
2017-Oct-13 13:54N 34°09' W 119°13'0 0.0
2017-Oct-13 13:30N 34°09' W 119°13'0 0.0
2017-Oct-13 12:58N 34°09' W 119°13'0 0.0
2017-Oct-13 12:26N 34°09' W 119°13'2 3.6
2017-Oct-13 12:00N 34°08' W 119°12'510.0
2017-Oct-13 11:30N 34°04' W 119°08'510.1
2017-Oct-13 11:00N 34°01' W 119°03'510.2
2017-Oct-13 10:30N 33°58' W 118°59'510.4
2017-Oct-13 10:00N 33°54' W 118°54'510.1
2017-Oct-13 09:30N 33°51' W 118°50'510.1
2017-Oct-13 09:00N 33°47' W 118°45'510.0
2017-Oct-13 08:30N 33°44' W 118°41'510.0
2017-Oct-13 08:00N 33°40' W 118°37'5 9.9
2017-Oct-13 07:30N 33°36' W 118°33'5 9.8
2017-Oct-13 07:00N 33°33' W 118°29'611.6
2017-Oct-13 06:30N 33°29' W 118°24'612.1
2017-Oct-13 06:00N 33°24' W 118°19'611.8
2017-Oct-13 05:30N 33°20' W 118°14'611.9
2017-Oct-13 05:00N 33°15' W 118°10'611.9
2017-Oct-13 04:29N 33°09' W 118°08'611.8
2017-Oct-13 04:00N 33°03' W 118°07'611.6
2017-Oct-13 03:30N 32°58' W 118°06'611.5
2017-Oct-13 03:00N 32°52' W 118°05'612.2
2017-Oct-13 02:31N 32°46' W 118°04'612.1
2017-Oct-13 02:00N 32°40' W 118°03'611.5
2017-Oct-13 01:30N 32°34' W 118°01'612.5
2017-Oct-13 01:00N 32°28' W 117°60'5 1.6
2017-Oct-12 21:48N 32°23' W 117°58'0 0.8
2017-Oct-12 21:28N 32°24' W 117°58'3 0.8
2017-Oct-12 17:12N 32°27' W 117°59'1 4.9
2017-Oct-12 16:55N 32°28' W 117°59'2 4.9
2017-Oct-12 16:30N 32°30' W 117°58'3 5.1
2017-Oct-12 15:58N 32°33' W 117°58'1 2.5
2017-Oct-12 15:30N 32°34' W 117°59'2 3.3
2017-Oct-12 15:00N 32°32' W 117°59'4 7.3
2017-Oct-12 14:29N 32°36' W 118°00'510.0
2017-Oct-12 14:00N 32°40' W 118°02'5 9.8
2017-Oct-12 13:30N 32°45' W 118°04'5 9.8
2017-Oct-12 13:00N 32°49' W 118°07'5 9.8
2017-Oct-12 12:29N 32°53' W 118°10'1911.2
2017-Oct-12 10:44N 33°09' W 118°24'512.0
2017-Oct-12 10:17N 33°14' W 118°27'912.3
2017-Oct-12 09:35N 33°21' W 118°33'612.4
2017-Oct-12 09:06N 33°25' W 118°38'212.5
2017-Oct-12 08:57N 33°27' W 118°39'612.2
2017-Oct-12 08:29N 33°32' W 118°43'611.9
2017-Oct-12 08:00N 33°37' W 118°46'612.0
2017-Oct-12 07:30N 33°42' W 118°50'612.3
2017-Oct-12 07:00N 33°47' W 118°54'612.1
2017-Oct-12 06:30N 33°51' W 118°59'612.2
2017-Oct-12 06:00N 33°56' W 119°03'612.4
2017-Oct-12 05:30N 34°01' W 119°08'612.5
2017-Oct-12 05:00N 34°06' W 119°12'3 6.1
2017-Oct-12 04:30N 34°09' W 119°13'  
Track history (hours):
 
Tides and Currents Weather Stations Pressure Air Temp Water Temp Dewpoint Dewpoint Depression Visibility Wind Speed Wind Dir Waves Ship Positions

Hostile Method-08

Last reported at 2017-Oct-19 01:18 UTC. Time now 2017-Oct-19 23:45 UTC.
Position N 34°09' W 119°13'.

Length 26 m; draft 1.6 m.

Type: Military. MMSI: 369970279.

Date/timePositionNaut miles runAvg speedWind from/ knotsBaromVisibWave heightAir tempDewpointWater temp
2017-Oct-19 01:18N 34°09' W 119°13'0 0.0
2017-Oct-19 01:00N 34°09' W 119°13'0 0.0
2017-Oct-19 00:28N 34°09' W 119°13'0 0.0
2017-Oct-19 00:00N 34°09' W 119°13'0 0.0
2017-Oct-18 23:30N 34°09' W 119°13'0 0.0
2017-Oct-18 22:59N 34°09' W 119°13'0 0.0
2017-Oct-18 22:30N 34°09' W 119°13'0 0.0
2017-Oct-18 22:00N 34°09' W 119°13'0 0.0
2017-Oct-18 21:30N 34°09' W 119°13'0 0.0
2017-Oct-18 20:59N 34°09' W 119°13'0 0.0
2017-Oct-18 20:30N 34°09' W 119°13'0 0.0
2017-Oct-18 19:57N 34°09' W 119°13'0 0.0
2017-Oct-18 19:30N 34°09' W 119°13'0 0.0
2017-Oct-18 18:59N 34°09' W 119°13'0 0.0
2017-Oct-18 18:30N 34°09' W 119°13'0 0.0
2017-Oct-18 18:00N 34°09' W 119°13'2 4.2
2017-Oct-18 17:29N 34°07' W 119°13'714.7
2017-Oct-18 17:00N 34°02' W 119°19'714.6
2017-Oct-18 16:30N 33°58' W 119°26'714.0
2017-Oct-18 16:00N 33°54' W 119°33'611.3
2017-Oct-18 15:30N 33°48' W 119°35'3 6.3
2017-Oct-18 14:59N 33°46' W 119°33'5 5.5
2017-Oct-18 14:00N 33°45' W 119°39'1 1.4
2017-Oct-18 13:30N 33°45' W 119°40'2 4.2
2017-Oct-18 13:00N 33°46' W 119°42'5 9.5
2017-Oct-18 12:30N 33°47' W 119°37'3 5.5
2017-Oct-18 12:00N 33°48' W 119°34'612.1
2017-Oct-18 11:31N 33°51' W 119°28'713.5
2017-Oct-18 11:00N 33°57' W 119°23'713.4
2017-Oct-18 10:30N 34°02' W 119°18'713.6
2017-Oct-18 10:00N 34°08' W 119°14'2 3.3
2017-Oct-18 09:29N 34°09' W 119°13'0 0.0
2017-Oct-17 20:34N 34°09' W 119°13'0 0.0
2017-Oct-17 20:29N 34°09' W 119°13'0 0.0
2017-Oct-17 19:59N 34°09' W 119°13'3 6.2
2017-Oct-17 19:29N 34°07' W 119°15'715.0
2017-Oct-17 19:00N 34°01' W 119°20'815.0
2017-Oct-17 18:30N 33°56' W 119°27'815.5
2017-Oct-17 18:00N 33°52' W 119°35'815.0
2017-Oct-17 17:30N 33°47' W 119°42'510.7
2017-Oct-17 17:00N 33°45' W 119°48'1 2.2
2017-Oct-17 16:30N 33°44' W 119°47'1 1.7
2017-Oct-17 16:00N 33°43' W 119°47'2 4.1
2017-Oct-17 15:30N 33°43' W 119°49'3 5.9
2017-Oct-17 15:00N 33°44' W 119°52'2 3.4
2017-Oct-17 14:30N 33°44' W 119°54'612.2
2017-Oct-17 14:00N 33°45' W 119°47'612.7
2017-Oct-17 13:30N 33°46' W 119°39'612.4
2017-Oct-17 13:00N 33°49' W 119°33'612.6
2017-Oct-17 12:30N 33°53' W 119°27'712.8
2017-Oct-17 11:58N 33°59' W 119°22'612.2
2017-Oct-17 11:30N 34°03' W 119°18'612.8
2017-Oct-17 11:00N 34°08' W 119°13'  
2017-Oct-13 14:08N 34°09' W 119°13'0 0.0
2017-Oct-13 13:54N 34°09' W 119°13'0 0.0
2017-Oct-13 13:30N 34°09' W 119°13'0 0.0
2017-Oct-13 12:58N 34°09' W 119°13'0 0.0
2017-Oct-13 12:26N 34°09' W 119°13'2 3.6
2017-Oct-13 12:00N 34°08' W 119°12'510.0
2017-Oct-13 11:30N 34°04' W 119°08'510.1
2017-Oct-13 11:00N 34°01' W 119°03'510.2
2017-Oct-13 10:30N 33°58' W 118°59'510.4
2017-Oct-13 10:00N 33°54' W 118°54'510.1
2017-Oct-13 09:30N 33°51' W 118°50'510.1
2017-Oct-13 09:00N 33°47' W 118°45'510.0
2017-Oct-13 08:30N 33°44' W 118°41'510.0
2017-Oct-13 08:00N 33°40' W 118°37'5 9.9
2017-Oct-13 07:30N 33°36' W 118°33'5 9.8
2017-Oct-13 07:00N 33°33' W 118°29'611.6
2017-Oct-13 06:30N 33°29' W 118°24'612.1
2017-Oct-13 06:00N 33°24' W 118°19'611.8
2017-Oct-13 05:30N 33°20' W 118°14'611.9
2017-Oct-13 05:00N 33°15' W 118°10'611.9
2017-Oct-13 04:29N 33°09' W 118°08'611.8
2017-Oct-13 04:00N 33°03' W 118°07'611.6
2017-Oct-13 03:30N 32°58' W 118°06'611.5
2017-Oct-13 03:00N 32°52' W 118°05'612.2
2017-Oct-13 02:31N 32°46' W 118°04'612.1
2017-Oct-13 02:00N 32°40' W 118°03'611.5
2017-Oct-13 01:30N 32°34' W 118°01'612.5
2017-Oct-13 01:00N 32°28' W 117°60'5 1.6
2017-Oct-12 21:48N 32°23' W 117°58'0 0.8
2017-Oct-12 21:28N 32°24' W 117°58'3 0.8
2017-Oct-12 17:12N 32°27' W 117°59'1 4.9
2017-Oct-12 16:55N 32°28' W 117°59'2 4.9
2017-Oct-12 16:30N 32°30' W 117°58'3 5.1
2017-Oct-12 15:58N 32°33' W 117°58'1 2.5
2017-Oct-12 15:30N 32°34' W 117°59'2 3.3
2017-Oct-12 15:00N 32°32' W 117°59'4 7.3
2017-Oct-12 14:29N 32°36' W 118°00'510.0
2017-Oct-12 14:00N 32°40' W 118°02'5 9.8
2017-Oct-12 13:30N 32°45' W 118°04'5 9.8
2017-Oct-12 13:00N 32°49' W 118°07'5 9.8
2017-Oct-12 12:29N 32°53' W 118°10'1911.2
2017-Oct-12 10:44N 33°09' W 118°24'512.0
2017-Oct-12 10:17N 33°14' W 118°27'912.3
2017-Oct-12 09:35N 33°21' W 118°33'612.4
2017-Oct-12 09:06N 33°25' W 118°38'212.5
2017-Oct-12 08:57N 33°27' W 118°39'612.2
2017-Oct-12 08:29N 33°32' W 118°43'611.9
2017-Oct-12 08:00N 33°37' W 118°46'612.0
2017-Oct-12 07:30N 33°42' W 118°50'612.3
2017-Oct-12 07:00N 33°47' W 118°54'612.1
2017-Oct-12 06:30N 33°51' W 118°59'612.2
2017-Oct-12 06:00N 33°56' W 119°03'612.4
2017-Oct-12 05:30N 34°01' W 119°08'612.5
2017-Oct-12 05:00N 34°06' W 119°12'3 6.1
2017-Oct-12 04:30N 34°09' W 119°13'  

Dump ship's entire track history